createdAt,value
2023-04-06T00:01:53.778Z,0.50
2023-04-06T00:04:21.697Z,0.28
2023-04-06T00:06:49.046Z,0.38
2023-04-06T00:09:16.639Z,0.65
2023-04-06T00:11:44.935Z,0.40
2023-04-06T00:14:12.848Z,0.50
2023-04-06T00:16:40.995Z,0.55
2023-04-06T00:19:08.769Z,0.50
2023-04-06T00:21:36.134Z,0.70
2023-04-06T00:24:05.059Z,1.20
2023-04-06T00:26:32.542Z,0.50
2023-04-06T00:29:00.204Z,0.35
2023-04-06T00:31:27.760Z,0.70
2023-04-06T00:33:55.457Z,0.43
2023-04-06T00:36:22.935Z,0.60
2023-04-06T00:38:50.457Z,0.50
2023-04-06T00:41:19.995Z,0.57
2023-04-06T00:43:47.637Z,0.47
2023-04-06T00:46:15.284Z,0.55
2023-04-06T00:48:43.057Z,0.82
2023-04-06T00:51:11.047Z,0.52
2023-04-06T00:53:38.810Z,0.57
2023-04-06T00:56:06.505Z,0.80
2023-04-06T00:58:34.077Z,0.70
2023-04-06T01:01:02.135Z,0.80
2023-04-06T01:03:29.799Z,0.63
2023-04-06T01:05:59.400Z,0.50
2023-04-06T01:08:26.979Z,0.70
2023-04-06T01:10:54.559Z,0.80
2023-04-06T01:13:22.761Z,0.50
2023-04-06T01:15:51.174Z,0.75
2023-04-06T01:18:18.922Z,0.60
2023-04-06T01:20:46.404Z,0.85
2023-04-06T01:23:14.017Z,0.90
2023-04-06T01:25:41.565Z,0.65
2023-04-06T01:28:09.116Z,0.40
2023-04-06T01:30:36.716Z,0.73
2023-04-06T01:33:04.347Z,0.90
2023-04-06T01:35:32.092Z,0.85
2023-04-06T01:37:59.727Z,0.70
2023-04-06T01:40:27.376Z,0.90
2023-04-06T01:42:55.063Z,0.82
2023-04-06T01:45:22.562Z,1.00
2023-04-06T01:47:50.468Z,0.70
2023-04-06T01:50:17.992Z,0.70
2023-04-06T01:52:45.849Z,0.70
2023-04-06T01:55:13.471Z,0.60
2023-04-06T01:57:41.152Z,0.98
2023-04-06T02:00:09.133Z,0.60
2023-04-06T02:02:36.840Z,0.70
2023-04-06T02:05:04.617Z,0.68
2023-04-06T02:07:32.218Z,0.57
2023-04-06T02:10:00.164Z,1.30
2023-04-06T02:12:28.230Z,1.40
2023-04-06T02:14:56.140Z,0.90
2023-04-06T02:17:23.681Z,0.73
2023-04-06T02:19:51.237Z,0.65
2023-04-06T02:22:18.860Z,0.70
2023-04-06T02:24:47.718Z,0.57
2023-04-06T02:27:16.504Z,0.90
2023-04-06T02:29:43.917Z,0.70
2023-04-06T02:32:11.698Z,1.10
2023-04-06T02:34:39.440Z,0.80
2023-04-06T02:37:07.032Z,0.98
2023-04-06T02:39:34.453Z,0.95
2023-04-06T02:42:02.066Z,1.17
2023-04-06T02:44:29.592Z,0.90
2023-04-06T02:46:57.678Z,0.73
2023-04-06T02:49:25.208Z,1.02
2023-04-06T02:51:52.882Z,0.70
2023-04-06T02:54:20.570Z,0.90
2023-04-06T02:56:48.127Z,1.20
2023-04-06T02:59:15.773Z,1.00
2023-04-06T03:01:43.483Z,1.10
2023-04-06T03:04:11.915Z,1.45
2023-04-06T03:06:39.670Z,1.00
2023-04-06T03:09:07.788Z,1.55
2023-04-06T03:11:36.496Z,1.55
2023-04-06T03:14:04.218Z,1.40
2023-04-06T03:16:31.846Z,1.40
2023-04-06T03:18:59.571Z,1.10
2023-04-06T03:21:27.164Z,1.65
2023-04-06T03:23:54.730Z,1.17
2023-04-06T03:26:23.346Z,0.88
2023-04-06T03:28:50.962Z,1.35
2023-04-06T03:31:18.678Z,1.30
2023-04-06T03:33:46.438Z,1.27
2023-04-06T03:36:14.101Z,1.25
2023-04-06T03:38:41.752Z,1.23
2023-04-06T03:41:09.377Z,1.30
2023-04-06T03:43:37.199Z,1.70
2023-04-06T03:46:04.447Z,1.60
2023-04-06T03:48:32.369Z,1.83
2023-04-06T03:51:00.025Z,1.60
2023-04-06T03:53:27.858Z,2.15
2023-04-06T03:55:55.409Z,1.60
2023-04-06T03:58:23.160Z,1.95
2023-04-06T04:00:50.764Z,2.28
2023-04-06T04:03:18.514Z,2.90
2023-04-06T04:05:46.206Z,1.95
2023-04-06T04:08:18.025Z,2.13
2023-04-06T04:10:45.681Z,3.05
2023-04-06T04:13:13.268Z,2.88
2023-04-06T04:15:41.337Z,2.65
2023-04-06T04:18:08.882Z,3.20
2023-04-06T04:20:36.569Z,3.15
2023-04-06T04:23:04.005Z,3.03
2023-04-06T04:25:31.719Z,2.72
2023-04-06T04:27:59.464Z,3.45
2023-04-06T04:30:27.219Z,2.70
2023-04-06T04:32:55.122Z,2.88
2023-04-06T04:35:22.787Z,2.60
2023-04-06T04:37:50.454Z,1.35
2023-04-06T04:40:18.447Z,3.95
2023-04-06T04:42:46.250Z,3.08
2023-04-06T04:45:13.974Z,4.30
2023-04-06T04:47:41.655Z,3.65
2023-04-06T04:50:09.386Z,3.67
2023-04-06T04:52:36.978Z,4.97
2023-04-06T04:55:04.751Z,5.07
2023-04-06T04:57:34.507Z,7.43
2023-04-06T05:00:03.041Z,4.88
2023-04-06T05:02:30.796Z,4.45
2023-04-06T05:04:58.627Z,3.88
2023-04-06T05:07:26.302Z,6.38
2023-04-06T05:09:53.836Z,5.60
2023-04-06T05:12:21.730Z,5.93
2023-04-06T05:14:49.696Z,4.28
2023-04-06T05:17:17.292Z,7.43
2023-04-06T05:19:45.232Z,7.45
2023-04-06T05:22:15.183Z,5.10
2023-04-06T05:24:42.840Z,4.68
2023-04-06T05:27:10.852Z,6.13
2023-04-06T05:29:38.394Z,6.82
2023-04-06T05:32:07.152Z,6.15
2023-04-06T05:34:34.989Z,5.45
2023-04-06T05:37:02.688Z,6.78
2023-04-06T05:39:30.372Z,4.82
2023-04-06T05:41:57.852Z,5.90
2023-04-06T05:44:25.546Z,4.43
2023-04-06T05:46:53.077Z,7.20
2023-04-06T05:49:21.089Z,5.93
2023-04-06T05:51:48.998Z,6.03
2023-04-06T05:54:16.506Z,6.07
2023-04-06T05:56:44.198Z,6.50
2023-04-06T05:59:11.935Z,5.70
2023-04-06T06:01:39.688Z,7.70
2023-04-06T06:04:07.557Z,5.10
2023-04-06T06:06:35.248Z,6.40
2023-04-06T06:09:04.464Z,5.78
2023-04-06T06:11:32.151Z,10.93
2023-04-06T06:14:00.141Z,10.48
2023-04-06T06:16:27.824Z,11.82
2023-04-06T06:18:56.749Z,7.53
2023-04-06T06:21:24.393Z,9.50
2023-04-06T06:23:51.959Z,7.50
2023-04-06T06:26:19.615Z,6.82
2023-04-06T06:28:47.417Z,8.48
2023-04-06T06:31:14.983Z,12.52
2023-04-06T06:33:42.550Z,8.73
2023-04-06T06:36:10.235Z,9.68
2023-04-06T06:38:37.913Z,8.32
2023-04-06T06:41:05.455Z,8.07
2023-04-06T06:43:33.020Z,10.68
2023-04-06T06:46:00.737Z,8.40
2023-04-06T06:48:28.518Z,9.30
2023-04-06T06:50:56.384Z,8.65
2023-04-06T06:53:24.105Z,6.47
2023-04-06T06:55:51.933Z,6.80
2023-04-06T06:58:22.584Z,6.22
2023-04-06T07:00:53.961Z,8.40
2023-04-06T07:03:21.926Z,10.20
2023-04-06T07:05:54.209Z,8.93
2023-04-06T07:08:25.358Z,10.75
2023-04-06T07:10:59.659Z,5.72
2023-04-06T07:13:28.800Z,12.88
2023-04-06T07:15:56.865Z,8.63
2023-04-06T07:18:24.413Z,7.78
2023-04-06T07:20:52.351Z,11.05
2023-04-06T07:23:19.962Z,14.68
2023-04-06T07:25:47.681Z,8.02
2023-04-06T07:28:15.939Z,8.90
2023-04-06T07:30:44.178Z,7.47
2023-04-06T07:33:11.926Z,7.82
2023-04-06T07:35:39.729Z,8.05
2023-04-06T07:38:07.715Z,9.32
2023-04-06T07:40:35.498Z,10.00
2023-04-06T07:43:03.243Z,10.05
2023-04-06T07:45:31.050Z,6.18
2023-04-06T07:47:58.700Z,8.70
2023-04-06T07:50:26.408Z,10.57
2023-04-06T07:52:53.912Z,10.27
2023-04-06T07:55:21.854Z,8.85
2023-04-06T07:57:49.729Z,11.45
2023-04-06T08:00:17.616Z,9.95
2023-04-06T08:02:45.570Z,7.22
2023-04-06T08:05:13.379Z,9.45
2023-04-06T08:07:41.589Z,12.60
2023-04-06T08:10:09.787Z,12.48
2023-04-06T08:12:41.123Z,7.30
2023-04-06T08:15:10.185Z,10.88
2023-04-06T08:17:39.305Z,8.05
2023-04-06T08:20:12.906Z,8.60
2023-04-06T08:22:41.305Z,11.35
2023-04-06T08:25:09.603Z,8.60
2023-04-06T08:27:40.508Z,8.00
2023-04-06T08:30:08.638Z,7.82
2023-04-06T08:32:37.030Z,8.95
2023-04-06T08:35:05.078Z,7.93
2023-04-06T08:37:36.571Z,7.10
2023-04-06T08:40:04.536Z,7.40
2023-04-06T08:42:34.618Z,7.57
2023-04-06T08:45:02.726Z,10.32
2023-04-06T08:47:30.916Z,8.20
2023-04-06T08:49:59.160Z,7.80
2023-04-06T08:52:27.579Z,8.65
2023-04-06T08:54:55.591Z,8.52
2023-04-06T08:57:24.783Z,7.18
2023-04-06T08:59:53.458Z,11.57
2023-04-06T09:02:21.326Z,7.95
2023-04-06T09:04:50.230Z,8.27
2023-04-06T09:07:25.698Z,6.47
2023-04-06T09:09:53.735Z,8.48
2023-04-06T09:12:30.687Z,6.45
2023-04-06T09:15:03.498Z,6.65
2023-04-06T09:17:34.994Z,5.57
2023-04-06T09:20:05.492Z,8.20
2023-04-06T09:22:41.661Z,8.32
2023-04-06T09:25:11.514Z,7.60
2023-04-06T09:27:45.971Z,8.23
2023-04-06T09:30:15.465Z,6.68
2023-04-06T09:33:02.470Z,8.02
2023-04-06T09:35:34.299Z,6.80
2023-04-06T09:38:12.820Z,9.90
2023-04-06T09:41:00.154Z,10.52
2023-04-06T09:43:28.955Z,5.90
2023-04-06T09:45:58.398Z,6.82
2023-04-06T09:48:30.117Z,7.50
2023-04-06T09:51:08.473Z,7.20
2023-04-06T09:53:39.680Z,5.25
2023-04-06T09:56:10.083Z,9.57
2023-04-06T09:58:39.362Z,7.45
2023-04-06T10:01:15.799Z,7.78
2023-04-06T10:03:43.928Z,9.18
2023-04-06T10:06:15.890Z,6.38
2023-04-06T10:08:44.953Z,9.27
2023-04-06T10:11:12.680Z,8.23
2023-04-06T10:13:41.398Z,6.03
2023-04-06T10:16:09.814Z,5.80
2023-04-06T10:18:37.631Z,5.18
2023-04-06T10:21:16.098Z,6.03
2023-04-06T10:23:47.170Z,6.30
2023-04-06T10:26:17.443Z,5.80
2023-04-06T10:28:46.014Z,8.05
2023-04-06T10:31:13.772Z,7.30
2023-04-06T10:33:41.921Z,8.25
2023-04-06T10:36:27.544Z,3.13
2023-04-06T10:39:01.312Z,5.03
2023-04-06T10:41:36.406Z,6.78
2023-04-06T10:44:04.461Z,5.68
2023-04-06T10:46:32.724Z,5.30
2023-04-06T10:49:12.343Z,5.50
2023-04-06T10:51:40.335Z,6.85
2023-04-06T10:54:11.564Z,6.72
2023-04-06T10:56:40.167Z,5.00
2023-04-06T10:59:10.475Z,4.88
2023-04-06T11:01:39.733Z,7.35
2023-04-06T11:04:09.618Z,6.07
2023-04-06T11:06:37.438Z,5.50
2023-04-06T11:09:05.337Z,5.47
2023-04-06T11:11:33.147Z,9.07
2023-04-06T11:14:02.258Z,6.13
2023-04-06T11:16:32.287Z,4.82
2023-04-06T11:21:34.900Z,5.55
2023-04-06T11:24:08.119Z,5.43
2023-04-06T11:26:46.063Z,6.60
2023-04-06T11:29:14.533Z,6.43
2023-04-06T11:31:43.500Z,5.20
2023-04-06T11:34:14.717Z,5.20
2023-04-06T11:36:43.096Z,6.70
2023-04-06T11:39:13.874Z,6.63
2023-04-06T11:41:42.420Z,6.55
2023-04-06T11:44:12.521Z,5.35
2023-04-06T11:49:07.751Z,5.15
2023-04-06T11:51:38.973Z,5.28
2023-04-06T11:54:06.663Z,5.75
2023-04-06T11:56:34.627Z,6.47
2023-04-06T11:59:02.414Z,6.10
2023-04-06T12:01:30.986Z,6.20
2023-04-06T12:04:00.434Z,4.32
2023-04-06T12:06:32.840Z,7.13
2023-04-06T12:09:03.887Z,4.38
2023-04-06T12:11:32.018Z,5.07
2023-04-06T12:14:02.743Z,4.55
2023-04-06T12:16:30.778Z,3.38
2023-04-06T12:18:58.631Z,4.28
2023-04-06T12:21:26.496Z,2.55
2023-04-06T12:23:54.179Z,5.13
2023-04-06T12:26:22.704Z,4.60
2023-04-06T12:28:51.231Z,3.28
2023-04-06T12:31:26.905Z,3.42
2023-04-06T12:33:54.739Z,4.88
2023-04-06T12:36:23.040Z,3.80
2023-04-06T12:38:51.032Z,4.32
2023-04-06T12:41:21.694Z,3.75
2023-04-06T12:43:53.718Z,1.92
2023-04-06T12:46:21.975Z,6.95
2023-04-06T12:48:49.931Z,4.68
2023-04-06T12:51:18.673Z,5.53
2023-04-06T12:53:48.989Z,4.47
2023-04-06T12:56:18.549Z,4.85
2023-04-06T12:58:46.835Z,4.18
2023-04-06T13:01:14.854Z,5.05
2023-04-06T13:03:43.027Z,156.18
2023-04-06T13:06:10.851Z,5.93
2023-04-06T13:08:39.269Z,3.60
2023-04-06T13:11:09.293Z,5.28
2023-04-06T13:13:37.792Z,6.80
2023-04-06T13:16:07.038Z,5.10
2023-04-06T13:18:35.539Z,5.28
2023-04-06T13:21:03.358Z,2.42
2023-04-06T13:23:31.277Z,3.95
2023-04-06T13:26:00.722Z,4.45
2023-04-06T13:28:29.827Z,3.10
2023-04-06T13:30:57.724Z,3.50
2023-04-06T13:33:26.309Z,5.97
2023-04-06T13:35:53.868Z,226.57
2023-04-06T13:38:21.548Z,2.80
2023-04-06T13:40:50.947Z,238.43
2023-04-06T13:43:20.608Z,1.17
2023-04-06T13:45:59.274Z,1.27
2023-04-06T13:48:27.362Z,1.38
2023-04-06T13:50:55.169Z,3.83
2023-04-06T13:53:22.857Z,3.08
2023-04-06T13:55:59.523Z,4.07
2023-04-06T13:58:27.812Z,3.45
2023-04-06T14:00:55.794Z,4.18
2023-04-06T14:03:24.688Z,1.40
2023-04-06T14:05:52.613Z,3.08
2023-04-06T14:08:23.248Z,4.40
2023-04-06T14:10:50.935Z,53.22
2023-04-06T14:13:21.248Z,2.67
2023-04-06T14:15:59.539Z,3.78
2023-04-06T14:18:31.861Z,241.52
2023-04-06T14:21:00.183Z,4.20
2023-04-06T14:23:28.886Z,4.47
2023-04-06T14:26:04.934Z,3.97
2023-04-06T14:31:01.678Z,3.70
2023-04-06T14:33:29.573Z,1.15
2023-04-06T14:35:57.454Z,3.20
2023-04-06T14:38:28.250Z,3.40
2023-04-06T14:40:57.101Z,3.30
2023-04-06T14:43:25.104Z,2.63
2023-04-06T14:45:55.290Z,3.00
2023-04-06T14:48:23.323Z,4.25
2023-04-06T14:50:57.667Z,3.25
2023-04-06T14:53:25.601Z,3.55
2023-04-06T14:55:53.573Z,3.08
2023-04-06T14:58:22.055Z,3.53
2023-04-06T15:00:57.175Z,3.28
2023-04-06T15:03:27.210Z,4.38
2023-04-06T15:05:56.772Z,3.03
2023-04-06T15:08:26.564Z,257.55
2023-04-06T15:10:57.114Z,262.10
2023-04-06T15:13:28.589Z,3.50
2023-04-06T15:15:58.682Z,39.83
2023-04-06T15:18:28.602Z,2.40
2023-04-06T15:20:57.761Z,5.40
2023-04-06T15:23:26.336Z,2.08
2023-04-06T15:25:54.754Z,2.40
2023-04-06T15:28:22.794Z,3.72
2023-04-06T15:30:52.378Z,226.90
2023-04-06T15:33:24.505Z,282.23
2023-04-06T15:35:53.967Z,268.00
2023-04-06T15:38:22.474Z,272.23
2023-04-06T15:40:51.140Z,282.27
2023-04-06T15:43:22.446Z,283.98
2023-04-06T15:45:55.368Z,158.68
2023-04-06T15:48:24.597Z,183.75
2023-04-06T15:50:53.744Z,182.25
2023-04-06T15:53:26.809Z,189.10
2023-04-06T15:56:05.384Z,179.32
2023-04-06T15:58:35.155Z,183.93
2023-04-06T16:01:06.913Z,182.82
2023-04-06T16:03:35.764Z,173.25
2023-04-06T16:06:08.857Z,171.75
2023-04-06T16:08:38.529Z,176.48
2023-04-06T16:11:07.728Z,177.90
2023-04-06T16:13:38.111Z,172.38
2023-04-06T16:16:12.717Z,177.00
2023-04-06T16:18:41.814Z,148.73
2023-04-06T16:21:10.649Z,135.40
2023-04-06T16:23:43.767Z,152.85
2023-04-06T16:26:18.615Z,133.00
2023-04-06T16:28:48.497Z,128.75
2023-04-06T16:33:52.489Z,132.25
2023-04-06T16:36:24.983Z,131.70
2023-04-06T16:38:53.316Z,129.15
2023-04-06T16:41:22.722Z,130.48
2023-04-06T16:43:52.362Z,131.68
2023-04-06T16:46:21.725Z,128.02
2023-04-06T16:48:49.798Z,126.05
2023-04-06T16:51:20.665Z,127.32
2023-04-06T16:53:49.143Z,126.45
2023-04-06T16:56:16.752Z,134.85
2023-04-06T16:58:46.257Z,126.70
2023-04-06T17:01:33.492Z,127.03
2023-04-06T17:04:02.461Z,127.20
2023-04-06T17:06:31.138Z,123.13
2023-04-06T17:09:00.172Z,125.40
2023-04-06T17:11:43.669Z,117.57
2023-04-06T17:14:15.307Z,122.38
2023-04-06T17:16:43.029Z,120.20
2023-04-06T17:19:11.081Z,116.57
2023-04-06T17:21:40.652Z,114.93
2023-04-06T17:24:08.970Z,113.35
2023-04-06T17:26:36.745Z,119.13
2023-04-06T17:29:04.664Z,109.80
2023-04-06T17:31:32.356Z,105.68
2023-04-06T17:33:59.996Z,105.75
2023-04-06T17:36:28.644Z,106.35
2023-04-06T17:38:56.555Z,100.68
2023-04-06T17:41:24.334Z,105.40
2023-04-06T17:43:52.259Z,106.70
2023-04-06T17:46:21.526Z,106.28
2023-04-06T17:48:49.475Z,107.72
2023-04-06T17:51:19.435Z,109.25
2023-04-06T17:56:14.651Z,108.07
2023-04-06T17:58:42.403Z,106.45
2023-04-06T18:01:13.155Z,106.68
2023-04-06T18:03:40.999Z,102.43
2023-04-06T18:06:15.838Z,104.57
2023-04-06T18:08:43.824Z,105.47
2023-04-06T18:11:21.996Z,110.28
2023-04-06T18:13:50.577Z,106.07
2023-04-06T18:16:21.245Z,108.10
2023-04-06T18:18:49.344Z,105.13
2023-04-06T18:21:17.175Z,102.43
2023-04-06T18:23:44.932Z,108.50
2023-04-06T18:26:17.386Z,100.20
2023-04-06T18:28:45.116Z,106.07
2023-04-06T18:31:12.853Z,103.70
2023-04-06T18:33:44.131Z,104.18
2023-04-06T18:36:11.929Z,105.75
2023-04-06T18:38:43.910Z,104.53
2023-04-06T18:41:11.761Z,105.97
2023-04-06T18:43:40.344Z,111.60
2023-04-06T18:46:12.600Z,109.15
2023-04-06T18:48:40.684Z,107.80
2023-04-06T18:51:08.508Z,108.15
2023-04-06T18:53:37.913Z,128.32
2023-04-06T18:56:20.719Z,153.40
2023-04-06T18:58:49.366Z,182.55
2023-04-06T19:01:28.754Z,192.55
2023-04-06T19:03:57.442Z,162.02
2023-04-06T19:06:27.124Z,190.70
2023-04-06T19:08:56.609Z,185.63
2023-04-06T19:11:25.370Z,184.15
2023-04-06T19:13:54.590Z,208.35
2023-04-06T19:16:22.440Z,147.43
2023-04-06T19:18:53.448Z,121.35
2023-04-06T19:21:25.249Z,119.75
2023-04-06T19:23:55.446Z,123.70
2023-04-06T19:26:24.239Z,126.18
2023-04-06T19:28:52.057Z,126.45
2023-04-06T19:31:20.309Z,118.57
2023-04-06T19:33:48.277Z,118.32
2023-04-06T19:36:16.378Z,120.43
2023-04-06T19:38:44.328Z,119.13
2023-04-06T19:41:12.090Z,149.05
2023-04-06T19:43:39.837Z,178.65
2023-04-06T19:46:09.251Z,201.82
2023-04-06T19:48:37.384Z,225.90
2023-04-06T19:51:05.244Z,223.57
2023-04-06T19:53:32.998Z,216.80
2023-04-06T19:56:00.708Z,229.15
2023-04-06T19:58:28.413Z,142.60
2023-04-06T20:00:56.136Z,175.75
2023-04-06T20:03:24.026Z,190.30
2023-04-06T20:05:51.812Z,199.20
2023-04-06T20:08:19.773Z,211.25
2023-04-06T20:10:47.526Z,213.90
2023-04-06T20:13:16.955Z,206.05
2023-04-06T20:15:45.328Z,224.43
2023-04-06T20:18:13.061Z,232.48
2023-04-06T20:20:40.909Z,219.00
2023-04-06T20:23:08.707Z,217.05
2023-04-06T20:25:36.572Z,145.90
2023-04-06T20:28:06.681Z,145.13
2023-04-06T20:30:34.578Z,131.30
2023-04-06T20:33:02.285Z,134.18
2023-04-06T20:35:31.245Z,128.20
2023-04-06T20:37:59.296Z,131.95
2023-04-06T20:40:27.428Z,130.95
2023-04-06T20:42:55.905Z,128.80
2023-04-06T20:45:23.726Z,128.82
2023-04-06T20:47:54.942Z,130.73
2023-04-06T20:50:23.398Z,126.00
2023-04-06T20:52:51.164Z,126.57
2023-04-06T20:55:18.900Z,126.38
2023-04-06T20:57:46.666Z,124.32
2023-04-06T21:00:14.896Z,123.05
2023-04-06T21:02:43.012Z,121.35
2023-04-06T21:05:11.246Z,121.20
2023-04-06T21:07:39.199Z,120.00
2023-04-06T21:10:07.285Z,123.15
2023-04-06T21:12:35.460Z,120.07
2023-04-06T21:15:04.669Z,120.10
2023-04-06T21:17:36.236Z,124.60
2023-04-06T21:20:07.204Z,170.15
2023-04-06T21:22:35.090Z,191.90
2023-04-06T21:25:02.868Z,202.88
2023-04-06T21:27:30.953Z,219.43
2023-04-06T21:29:58.585Z,200.93
2023-04-06T21:32:26.401Z,218.25
2023-04-06T21:34:54.342Z,215.20
2023-04-06T21:37:22.220Z,127.43
2023-04-06T21:39:50.090Z,126.68
2023-04-06T21:42:18.009Z,127.78
2023-04-06T21:44:45.672Z,128.38
2023-04-06T21:47:13.544Z,125.15
2023-04-06T21:49:41.627Z,124.57
2023-04-06T21:52:09.365Z,119.10
2023-04-06T21:54:37.298Z,109.38
2023-04-06T21:57:05.252Z,139.90
2023-04-06T21:59:33.226Z,167.00
2023-04-06T22:02:01.137Z,190.45
2023-04-06T22:04:28.982Z,204.00
2023-04-06T22:06:56.870Z,212.15
2023-04-06T22:09:24.691Z,213.55
2023-04-06T22:11:52.547Z,220.88
2023-04-06T22:14:21.044Z,220.52
2023-04-06T22:16:49.088Z,116.85
2023-04-06T22:19:16.963Z,117.82
2023-04-06T22:21:45.392Z,124.13
2023-04-06T22:24:13.234Z,126.07
2023-04-06T22:26:41.060Z,123.90
2023-04-06T22:29:08.891Z,132.07
2023-04-06T22:31:36.791Z,125.63
2023-04-06T22:34:04.468Z,133.57
2023-04-06T22:36:32.223Z,130.82
2023-04-06T22:38:59.992Z,128.88
2023-04-06T22:41:28.088Z,126.90
2023-04-06T22:43:55.972Z,129.23
2023-04-06T22:46:23.694Z,127.57
2023-04-06T22:48:51.711Z,126.60
2023-04-06T22:51:19.639Z,122.80
2023-04-06T22:53:47.446Z,121.47
2023-04-06T22:56:15.343Z,132.35
2023-04-06T22:58:43.125Z,169.27
2023-04-06T23:01:11.115Z,190.65
2023-04-06T23:03:39.100Z,204.40
2023-04-06T23:06:10.152Z,227.32
2023-04-06T23:08:37.965Z,248.52
2023-04-06T23:11:05.681Z,165.07
2023-04-06T23:13:35.339Z,115.05
2023-04-06T23:16:03.044Z,122.40
2023-04-06T23:18:34.007Z,125.15
2023-04-06T23:21:02.151Z,129.63
2023-04-06T23:23:29.861Z,123.88
2023-04-06T23:25:57.648Z,123.82
2023-04-06T23:28:25.467Z,122.47
2023-04-06T23:30:53.097Z,123.30
2023-04-06T23:33:21.081Z,122.20
2023-04-06T23:35:48.754Z,120.10
2023-04-06T23:38:16.642Z,122.35
2023-04-06T23:40:44.414Z,122.03
2023-04-06T23:43:11.976Z,123.05
2023-04-06T23:45:43.391Z,120.15
2023-04-06T23:48:11.341Z,121.72
2023-04-06T23:50:39.231Z,123.45
2023-04-06T23:53:07.288Z,127.03
2023-04-06T23:55:35.393Z,128.43
2023-04-06T23:58:04.201Z,129.80
